Ice Star — OUJK2 — position and weather

sailwx.info

Track history (hours):
 
Tides and Currents Weather Stations Pressure Air Temp Water Temp Dewpoint Dewpoint Depression Visibility Wind Speed Wind Dir Waves Ship Positions

Ice Star

Last reported at 2014-Nov-25 00:33 UTC. Time now 2014-Nov-26 16:21 UTC.
Position N 35°06' W 125°50'.

Length 367 m; draft 12.8 m.

Type: Ship. MMSI: 220596000.

Date/timePositionNaut miles runAvg speedWind from/ knotsBaromVisibWave heightAir tempDewpointWater temp
2014-Nov-25 00:33N 35°06' W 125°50'1111.4
2014-Nov-24 23:33N 34°57' W 125°42'3611.8
2014-Nov-24 20:29N 34°28' W 125°15'4212.6
2014-Nov-24 17:12N 34°28' W 124°25'812.7
2014-Nov-24 16:32N 34°28' W 124°14'1312.9
2014-Nov-24 15:33N 34°29' W 123°59'1312.8
2014-Nov-24 14:31N 34°29' W 123°43'1212.6
2014-Nov-24 13:33N 34°28' W 123°28'1312.7
2014-Nov-24 12:33N 34°28' W 123°13'1312.6
2014-Nov-24 11:33N 34°28' W 122°58'1312.6
2014-Nov-24 10:33N 34°28' W 122°42'1312.7
2014-Nov-24 09:33N 34°28' W 122°27'1312.7
2014-Nov-24 08:33N 34°28' W 122°12'1212.4
2014-Nov-24 07:33N 34°28' W 121°57'1312.6
2014-Nov-24 06:33N 34°28' W 121°41'1312.5
2014-Nov-24 05:33N 34°28' W 121°26'2512.7
2014-Nov-24 03:33N 34°27' W 120°55'7 7.3
2014-Nov-24 02:33N 34°25' W 120°47'5 5.3
2014-Nov-24 01:33N 34°24' W 120°41'10 5.0
2014-Nov-23 23:33N 34°21' W 120°29'5 5.4
2014-Nov-23 22:32N 34°20' W 120°23'5 5.5
2014-Nov-23 21:33N 34°18' W 120°16'6 5.5
2014-Nov-23 20:33N 34°17' W 120°10'6 6.0
2014-Nov-23 19:33N 34°15' W 120°03'6 6.3
2014-Nov-23 18:33N 34°13' W 119°56'6 6.3
2014-Nov-23 17:33N 34°12' W 119°48'6 6.3
2014-Nov-23 16:33N 34°10' W 119°41'7 6.7
2014-Nov-23 15:33N 34°08' W 119°33'7 6.7
2014-Nov-23 14:33N 34°07' W 119°25'7 6.5
2014-Nov-23 13:32N 34°05' W 119°18'7 6.5
2014-Nov-23 12:32N 34°02' W 119°11'6 6.4
2014-Nov-23 11:33N 33°59' W 119°04'33 6.3
2014-Nov-23 06:20N 33°43' W 118°29'11 6.1
2014-Nov-23 04:29N 33°38' W 118°17'5 5.2
2014-Nov-23 03:33N 33°43' W 118°16'1 1.0
2014-Nov-23 02:32N 33°44' W 118°15'0 0.0
2014-Nov-23 01:32N 33°44' W 118°15'0 0.0
2014-Nov-23 00:32N 33°44' W 118°15'0 0.0
2014-Nov-22 23:32N 33°44' W 118°15'0 0.0
2014-Nov-22 22:32N 33°44' W 118°15'0 0.0
2014-Nov-22 21:32N 33°44' W 118°15'0 0.0
2014-Nov-22 20:32N 33°44' W 118°15'0 0.0
2014-Nov-22 19:32N 33°44' W 118°15'0 0.0
2014-Nov-22 18:26N 33°44' W 118°15'0 0.0
2014-Nov-22 17:14N 33°44' W 118°15'0 0.0
2014-Nov-22 16:29N 33°44' W 118°15'0 0.0
2014-Nov-22 15:32N 33°44' W 118°15'0 0.0
2014-Nov-22 14:29N 33°44' W 118°15'0 0.0
2014-Nov-22 13:32N 33°44' W 118°15'0 0.0
2014-Nov-22 09:11N 33°44' W 118°15'0 0.0
2014-Nov-22 07:29N 33°44' W 118°15'0 0.0
2014-Nov-22 06:29N 33°44' W 118°15'0 0.0
2014-Nov-22 05:32N 33°44' W 118°15'0 0.0
2014-Nov-22 04:29N 33°44' W 118°15'0 0.0
2014-Nov-22 02:05N 33°44' W 118°15'0 0.0
2014-Nov-22 01:26N 33°44' W 118°15'0 0.0
2014-Nov-21 23:29N 33°44' W 118°15'0 0.0
2014-Nov-21 22:32N 33°44' W 118°15'0 0.0
2014-Nov-21 21:08N 33°44' W 118°15'0 0.0
2014-Nov-21 20:20N 33°44' W 118°15'0 0.0
2014-Nov-21 19:26N 33°44' W 118°15'0 0.0
2014-Nov-21 18:23N 33°44' W 118°15'0 0.0
2014-Nov-21 17:32N 33°44' W 118°15'0 0.0
2014-Nov-21 16:29N 33°44' W 118°15'0 0.0
2014-Nov-21 12:26N 33°44' W 118°15'0 0.0
2014-Nov-21 11:32N 33°44' W 118°15'0 0.0
2014-Nov-21 09:05N 33°44' W 118°15'0 0.0
2014-Nov-21 08:32N 33°44' W 118°15'0 0.0
2014-Nov-21 07:11N 33°44' W 118°15'0 0.0
2014-Nov-20 23:14N 33°44' W 118°15'0 0.0
2014-Nov-20 22:20N 33°44' W 118°15'0 0.0
2014-Nov-20 12:26N 33°44' W 118°15'0 0.0
2014-Nov-20 11:20N 33°44' W 118°15'0 0.0
2014-Nov-20 08:05N 33°44' W 118°15'0 0.0
2014-Nov-20 07:26N 33°44' W 118°15'0 0.0
2014-Nov-20 06:32N 33°44' W 118°15'0 0.0
2014-Nov-20 04:29N 33°44' W 118°15'0 0.0
2014-Nov-20 03:29N 33°44' W 118°15'0 0.0
2014-Nov-20 02:32N 33°44' W 118°15'0 0.0
2014-Nov-20 01:32N 33°44' W 118°15'0 0.0
2014-Nov-20 00:32N 33°44' W 118°15'0 0.0
2014-Nov-19 23:32N 33°44' W 118°15'0 0.0
2014-Nov-19 22:32N 33°44' W 118°15'0 0.0
2014-Nov-19 21:32N 33°44' W 118°15'0 0.0
2014-Nov-19 20:29N 33°44' W 118°15'0 0.0
2014-Nov-19 19:14N 33°44' W 118°15'0 0.0
2014-Nov-19 18:29N 33°44' W 118°15'0 0.0
2014-Nov-19 17:32N 33°44' W 118°15'0 0.0
2014-Nov-19 16:32N 33°44' W 118°15'0 0.0
2014-Nov-19 15:32N 33°44' W 118°15'0 0.0
2014-Nov-19 14:32N 33°44' W 118°15'0 0.0
2014-Nov-19 13:23N 33°44' W 118°15'0 0.0
2014-Nov-19 12:32N 33°44' W 118°15'0 0.0
2014-Nov-19 11:32N 33°44' W 118°15'0 0.0
2014-Nov-19 10:32N 33°44' W 118°15'0 0.0
2014-Nov-19 09:32N 33°44' W 118°15'0 0.0
2014-Nov-19 08:29N 33°44' W 118°15'0 0.0
2014-Nov-19 07:32N 33°44' W 118°15'0 0.0
2014-Nov-19 06:29N 33°44' W 118°15'0 0.0
2014-Nov-19 05:32N 33°44' W 118°15'0 0.0
2014-Nov-19 04:32N 33°44' W 118°15'0 0.0
2014-Nov-19 03:29N 33°44' W 118°15'0 0.0
2014-Nov-19 02:32N 33°44' W 118°15'0 0.0
2014-Nov-19 01:32N 33°44' W 118°15'0 0.0
2014-Nov-19 00:32N 33°44' W 118°15'0 0.0
2014-Nov-18 23:32N 33°44' W 118°15'0 0.0
2014-Nov-18 22:32N 33°44' W 118°15'0 0.0
2014-Nov-18 21:29N 33°44' W 118°15'0 0.0
2014-Nov-18 20:32N 33°44' W 118°15'0 0.0
2014-Nov-18 19:32N 33°44' W 118°15'0 0.0
2014-Nov-18 18:32N 33°44' W 118°15'0 0.0
2014-Nov-18 17:29N 33°44' W 118°15'0 0.0
2014-Nov-18 16:32N 33°44' W 118°15'0 0.0
2014-Nov-18 15:32N 33°44' W 118°15'0 0.0
2014-Nov-18 14:32N 33°44' W 118°15'0 0.0
2014-Nov-18 13:26N 33°44' W 118°15'0 0.0
2014-Nov-18 12:29N 33°44' W 118°15'0 0.0
2014-Nov-18 11:32N 33°44' W 118°15'0 0.0
2014-Nov-18 10:23N 33°44' W 118°15'0 0.0
2014-Nov-18 09:32N 33°44' W 118°15'0 0.0
2014-Nov-18 08:32N 33°44' W 118°15'0 0.0
2014-Nov-18 07:32N 33°44' W 118°15'0 0.0
2014-Nov-18 06:29N 33°44' W 118°15'0 0.0
2014-Nov-18 05:32N 33°44' W 118°15'0 0.0
2014-Nov-18 04:32N 33°44' W 118°15'0 0.0
2014-Nov-18 03:32N 33°44' W 118°15'0 0.0
2014-Nov-18 02:32N 33°44' W 118°15'0 0.0
2014-Nov-18 01:32N 33°44' W 118°15'0 0.0
2014-Nov-18 00:32N 33°44' W 118°15'0 0.0
2014-Nov-17 23:32N 33°44' W 118°15'0 0.0
2014-Nov-17 22:32N 33°44' W 118°15'0 0.0
2014-Nov-17 21:32N 33°44' W 118°15'0 0.0
2014-Nov-17 20:33N 33°44' W 118°15'0 0.0
2014-Nov-17 19:31N 33°44' W 118°15'0 0.0
2014-Nov-17 18:31N 33°44' W 118°15'0 0.0
2014-Nov-17 17:31N 33°44' W 118°15'0 0.0
2014-Nov-17 16:31N 33°44' W 118°15'0 0.0
2014-Nov-17 15:31N 33°44' W 118°15'0 0.0
2014-Nov-17 14:31N 33°44' W 118°15'0 0.0
2014-Nov-17 13:31N 33°44' W 118°15'0 0.0
2014-Nov-17 12:31N 33°44' W 118°15'0 0.0
2014-Nov-17 11:31N 33°44' W 118°15'0 0.0
2014-Nov-17 10:28N 33°44' W 118°15'0 0.0
2014-Nov-17 09:31N 33°44' W 118°15'0 0.0
2014-Nov-17 08:31N 33°44' W 118°15'8 0.9
2014-Nov-16 23:11N 33°39' W 118°07'0 0.3
2014-Nov-16 22:32N 33°39' W 118°07'0 0.1
2014-Nov-16 21:32N 33°39' W 118°07'0 0.1
2014-Nov-16 20:32N 33°39' W 118°07'0 0.0
2014-Nov-16 19:32N 33°39' W 118°07'0 0.0
2014-Nov-16 18:32N 33°39' W 118°07'0 0.0
2014-Nov-16 17:32N 33°39' W 118°07'0 0.0
2014-Nov-16 16:32N 33°39' W 118°07'0 0.1
2014-Nov-16 15:29N 33°39' W 118°07'0 0.3
2014-Nov-16 14:29N 33°39' W 118°07'0 0.1
2014-Nov-16 12:05N 33°39' W 118°07'0 0.1
2014-Nov-16 11:32N 33°39' W 118°07'0 0.1
2014-Nov-16 10:32N 33°39' W 118°07'0 0.0
2014-Nov-16 09:32N 33°39' W 118°07'0 0.0
2014-Nov-16 05:08N 33°39' W 118°07'0 0.1
2014-Nov-16 04:32N 33°39' W 118°07'0 0.0
2014-Nov-16 03:05N 33°39' W 118°07'0 0.0
2014-Nov-16 02:11N 33°39' W 118°07'0 0.0
2014-Nov-16 01:32N 33°39' W 118°07'0 0.0
2014-Nov-16 00:32N 33°39' W 118°07'0 0.0
2014-Nov-15 23:32N 33°39' W 118°07'0 0.0
2014-Nov-15 22:32N 33°39' W 118°07'0 0.0
2014-Nov-15 21:20N 33°39' W 118°07'0 0.1
2014-Nov-15 19:23N 33°39' W 118°07'0 0.1
2014-Nov-15 18:23N 33°39' W 118°07'0 0.0
2014-Nov-15 15:20N 33°39' W 118°07'0 0.1
2014-Nov-15 14:11N 33°39' W 118°07'0 0.0
2014-Nov-15 13:32N 33°39' W 118°07'0 0.0
2014-Nov-15 10:11N 33°39' W 118°07'0 0.1
2014-Nov-15 08:32N 33°39' W 118°07'0 0.0
2014-Nov-15 07:20N 33°39' W 118°07'0 0.0
2014-Nov-15 06:32N 33°39' W 118°07'0 0.1
2014-Nov-15 05:32N 33°39' W 118°07'0 0.0
2014-Nov-15 02:26N 33°39' W 118°07'0 0.0
2014-Nov-15 01:32N 33°39' W 118°07'  
Track history (hours):
 
Tides and Currents Weather Stations Pressure Air Temp Water Temp Dewpoint Dewpoint Depression Visibility Wind Speed Wind Dir Waves Ship Positions

Ice Star

Last reported at 2014-Nov-25 00:33 UTC. Time now 2014-Nov-26 16:21 UTC.
Position N 35°06' W 125°50'.

Length 367 m; draft 12.8 m.

Type: Ship. MMSI: 220596000.

Date/timePositionNaut miles runAvg speedWind from/ knotsBaromVisibWave heightAir tempDewpointWater temp
2014-Nov-25 00:33N 35°06' W 125°50'1111.4
2014-Nov-24 23:33N 34°57' W 125°42'3611.8
2014-Nov-24 20:29N 34°28' W 125°15'4212.6
2014-Nov-24 17:12N 34°28' W 124°25'812.7
2014-Nov-24 16:32N 34°28' W 124°14'1312.9
2014-Nov-24 15:33N 34°29' W 123°59'1312.8
2014-Nov-24 14:31N 34°29' W 123°43'1212.6
2014-Nov-24 13:33N 34°28' W 123°28'1312.7
2014-Nov-24 12:33N 34°28' W 123°13'1312.6
2014-Nov-24 11:33N 34°28' W 122°58'1312.6
2014-Nov-24 10:33N 34°28' W 122°42'1312.7
2014-Nov-24 09:33N 34°28' W 122°27'1312.7
2014-Nov-24 08:33N 34°28' W 122°12'1212.4
2014-Nov-24 07:33N 34°28' W 121°57'1312.6
2014-Nov-24 06:33N 34°28' W 121°41'1312.5
2014-Nov-24 05:33N 34°28' W 121°26'2512.7
2014-Nov-24 03:33N 34°27' W 120°55'7 7.3
2014-Nov-24 02:33N 34°25' W 120°47'5 5.3
2014-Nov-24 01:33N 34°24' W 120°41'10 5.0
2014-Nov-23 23:33N 34°21' W 120°29'5 5.4
2014-Nov-23 22:32N 34°20' W 120°23'5 5.5
2014-Nov-23 21:33N 34°18' W 120°16'6 5.5
2014-Nov-23 20:33N 34°17' W 120°10'6 6.0
2014-Nov-23 19:33N 34°15' W 120°03'6 6.3
2014-Nov-23 18:33N 34°13' W 119°56'6 6.3
2014-Nov-23 17:33N 34°12' W 119°48'6 6.3
2014-Nov-23 16:33N 34°10' W 119°41'7 6.7
2014-Nov-23 15:33N 34°08' W 119°33'7 6.7
2014-Nov-23 14:33N 34°07' W 119°25'7 6.5
2014-Nov-23 13:32N 34°05' W 119°18'7 6.5
2014-Nov-23 12:32N 34°02' W 119°11'6 6.4
2014-Nov-23 11:33N 33°59' W 119°04'33 6.3
2014-Nov-23 06:20N 33°43' W 118°29'11 6.1
2014-Nov-23 04:29N 33°38' W 118°17'5 5.2
2014-Nov-23 03:33N 33°43' W 118°16'1 1.0
2014-Nov-23 02:32N 33°44' W 118°15'0 0.0
2014-Nov-23 01:32N 33°44' W 118°15'0 0.0
2014-Nov-23 00:32N 33°44' W 118°15'0 0.0
2014-Nov-22 23:32N 33°44' W 118°15'0 0.0
2014-Nov-22 22:32N 33°44' W 118°15'0 0.0
2014-Nov-22 21:32N 33°44' W 118°15'0 0.0
2014-Nov-22 20:32N 33°44' W 118°15'0 0.0
2014-Nov-22 19:32N 33°44' W 118°15'0 0.0
2014-Nov-22 18:26N 33°44' W 118°15'0 0.0
2014-Nov-22 17:14N 33°44' W 118°15'0 0.0
2014-Nov-22 16:29N 33°44' W 118°15'0 0.0
2014-Nov-22 15:32N 33°44' W 118°15'0 0.0
2014-Nov-22 14:29N 33°44' W 118°15'0 0.0
2014-Nov-22 13:32N 33°44' W 118°15'0 0.0
2014-Nov-22 09:11N 33°44' W 118°15'0 0.0
2014-Nov-22 07:29N 33°44' W 118°15'0 0.0
2014-Nov-22 06:29N 33°44' W 118°15'0 0.0
2014-Nov-22 05:32N 33°44' W 118°15'0 0.0
2014-Nov-22 04:29N 33°44' W 118°15'0 0.0
2014-Nov-22 02:05N 33°44' W 118°15'0 0.0
2014-Nov-22 01:26N 33°44' W 118°15'0 0.0
2014-Nov-21 23:29N 33°44' W 118°15'0 0.0
2014-Nov-21 22:32N 33°44' W 118°15'0 0.0
2014-Nov-21 21:08N 33°44' W 118°15'0 0.0
2014-Nov-21 20:20N 33°44' W 118°15'0 0.0
2014-Nov-21 19:26N 33°44' W 118°15'0 0.0
2014-Nov-21 18:23N 33°44' W 118°15'0 0.0
2014-Nov-21 17:32N 33°44' W 118°15'0 0.0
2014-Nov-21 16:29N 33°44' W 118°15'0 0.0
2014-Nov-21 12:26N 33°44' W 118°15'0 0.0
2014-Nov-21 11:32N 33°44' W 118°15'0 0.0
2014-Nov-21 09:05N 33°44' W 118°15'0 0.0
2014-Nov-21 08:32N 33°44' W 118°15'0 0.0
2014-Nov-21 07:11N 33°44' W 118°15'0 0.0
2014-Nov-20 23:14N 33°44' W 118°15'0 0.0
2014-Nov-20 22:20N 33°44' W 118°15'0 0.0
2014-Nov-20 12:26N 33°44' W 118°15'0 0.0
2014-Nov-20 11:20N 33°44' W 118°15'0 0.0
2014-Nov-20 08:05N 33°44' W 118°15'0 0.0
2014-Nov-20 07:26N 33°44' W 118°15'0 0.0
2014-Nov-20 06:32N 33°44' W 118°15'0 0.0
2014-Nov-20 04:29N 33°44' W 118°15'0 0.0
2014-Nov-20 03:29N 33°44' W 118°15'0 0.0
2014-Nov-20 02:32N 33°44' W 118°15'0 0.0
2014-Nov-20 01:32N 33°44' W 118°15'0 0.0
2014-Nov-20 00:32N 33°44' W 118°15'0 0.0
2014-Nov-19 23:32N 33°44' W 118°15'0 0.0
2014-Nov-19 22:32N 33°44' W 118°15'0 0.0
2014-Nov-19 21:32N 33°44' W 118°15'0 0.0
2014-Nov-19 20:29N 33°44' W 118°15'0 0.0
2014-Nov-19 19:14N 33°44' W 118°15'0 0.0
2014-Nov-19 18:29N 33°44' W 118°15'0 0.0
2014-Nov-19 17:32N 33°44' W 118°15'0 0.0
2014-Nov-19 16:32N 33°44' W 118°15'0 0.0
2014-Nov-19 15:32N 33°44' W 118°15'0 0.0
2014-Nov-19 14:32N 33°44' W 118°15'0 0.0
2014-Nov-19 13:23N 33°44' W 118°15'0 0.0
2014-Nov-19 12:32N 33°44' W 118°15'0 0.0
2014-Nov-19 11:32N 33°44' W 118°15'0 0.0
2014-Nov-19 10:32N 33°44' W 118°15'0 0.0
2014-Nov-19 09:32N 33°44' W 118°15'0 0.0
2014-Nov-19 08:29N 33°44' W 118°15'0 0.0
2014-Nov-19 07:32N 33°44' W 118°15'0 0.0
2014-Nov-19 06:29N 33°44' W 118°15'0 0.0
2014-Nov-19 05:32N 33°44' W 118°15'0 0.0
2014-Nov-19 04:32N 33°44' W 118°15'0 0.0
2014-Nov-19 03:29N 33°44' W 118°15'0 0.0
2014-Nov-19 02:32N 33°44' W 118°15'0 0.0
2014-Nov-19 01:32N 33°44' W 118°15'0 0.0
2014-Nov-19 00:32N 33°44' W 118°15'0 0.0
2014-Nov-18 23:32N 33°44' W 118°15'0 0.0
2014-Nov-18 22:32N 33°44' W 118°15'0 0.0
2014-Nov-18 21:29N 33°44' W 118°15'0 0.0
2014-Nov-18 20:32N 33°44' W 118°15'0 0.0
2014-Nov-18 19:32N 33°44' W 118°15'0 0.0
2014-Nov-18 18:32N 33°44' W 118°15'0 0.0
2014-Nov-18 17:29N 33°44' W 118°15'0 0.0
2014-Nov-18 16:32N 33°44' W 118°15'0 0.0
2014-Nov-18 15:32N 33°44' W 118°15'0 0.0
2014-Nov-18 14:32N 33°44' W 118°15'0 0.0
2014-Nov-18 13:26N 33°44' W 118°15'0 0.0
2014-Nov-18 12:29N 33°44' W 118°15'0 0.0
2014-Nov-18 11:32N 33°44' W 118°15'0 0.0
2014-Nov-18 10:23N 33°44' W 118°15'0 0.0
2014-Nov-18 09:32N 33°44' W 118°15'0 0.0
2014-Nov-18 08:32N 33°44' W 118°15'0 0.0
2014-Nov-18 07:32N 33°44' W 118°15'0 0.0
2014-Nov-18 06:29N 33°44' W 118°15'0 0.0
2014-Nov-18 05:32N 33°44' W 118°15'0 0.0
2014-Nov-18 04:32N 33°44' W 118°15'0 0.0
2014-Nov-18 03:32N 33°44' W 118°15'0 0.0
2014-Nov-18 02:32N 33°44' W 118°15'0 0.0
2014-Nov-18 01:32N 33°44' W 118°15'0 0.0
2014-Nov-18 00:32N 33°44' W 118°15'0 0.0
2014-Nov-17 23:32N 33°44' W 118°15'0 0.0
2014-Nov-17 22:32N 33°44' W 118°15'0 0.0
2014-Nov-17 21:32N 33°44' W 118°15'0 0.0
2014-Nov-17 20:33N 33°44' W 118°15'0 0.0
2014-Nov-17 19:31N 33°44' W 118°15'0 0.0
2014-Nov-17 18:31N 33°44' W 118°15'0 0.0
2014-Nov-17 17:31N 33°44' W 118°15'0 0.0
2014-Nov-17 16:31N 33°44' W 118°15'0 0.0
2014-Nov-17 15:31N 33°44' W 118°15'0 0.0
2014-Nov-17 14:31N 33°44' W 118°15'0 0.0
2014-Nov-17 13:31N 33°44' W 118°15'0 0.0
2014-Nov-17 12:31N 33°44' W 118°15'0 0.0
2014-Nov-17 11:31N 33°44' W 118°15'0 0.0
2014-Nov-17 10:28N 33°44' W 118°15'0 0.0
2014-Nov-17 09:31N 33°44' W 118°15'0 0.0
2014-Nov-17 08:31N 33°44' W 118°15'8 0.9
2014-Nov-16 23:11N 33°39' W 118°07'0 0.3
2014-Nov-16 22:32N 33°39' W 118°07'0 0.1
2014-Nov-16 21:32N 33°39' W 118°07'0 0.1
2014-Nov-16 20:32N 33°39' W 118°07'0 0.0
2014-Nov-16 19:32N 33°39' W 118°07'0 0.0
2014-Nov-16 18:32N 33°39' W 118°07'0 0.0
2014-Nov-16 17:32N 33°39' W 118°07'0 0.0
2014-Nov-16 16:32N 33°39' W 118°07'0 0.1
2014-Nov-16 15:29N 33°39' W 118°07'0 0.3
2014-Nov-16 14:29N 33°39' W 118°07'0 0.1
2014-Nov-16 12:05N 33°39' W 118°07'0 0.1
2014-Nov-16 11:32N 33°39' W 118°07'0 0.1
2014-Nov-16 10:32N 33°39' W 118°07'0 0.0
2014-Nov-16 09:32N 33°39' W 118°07'0 0.0
2014-Nov-16 05:08N 33°39' W 118°07'0 0.1
2014-Nov-16 04:32N 33°39' W 118°07'0 0.0
2014-Nov-16 03:05N 33°39' W 118°07'0 0.0
2014-Nov-16 02:11N 33°39' W 118°07'0 0.0
2014-Nov-16 01:32N 33°39' W 118°07'0 0.0
2014-Nov-16 00:32N 33°39' W 118°07'0 0.0
2014-Nov-15 23:32N 33°39' W 118°07'0 0.0
2014-Nov-15 22:32N 33°39' W 118°07'0 0.0
2014-Nov-15 21:20N 33°39' W 118°07'0 0.1
2014-Nov-15 19:23N 33°39' W 118°07'0 0.1
2014-Nov-15 18:23N 33°39' W 118°07'0 0.0
2014-Nov-15 15:20N 33°39' W 118°07'0 0.1
2014-Nov-15 14:11N 33°39' W 118°07'0 0.0
2014-Nov-15 13:32N 33°39' W 118°07'0 0.0
2014-Nov-15 10:11N 33°39' W 118°07'0 0.1
2014-Nov-15 08:32N 33°39' W 118°07'0 0.0
2014-Nov-15 07:20N 33°39' W 118°07'0 0.0
2014-Nov-15 06:32N 33°39' W 118°07'0 0.1
2014-Nov-15 05:32N 33°39' W 118°07'0 0.0
2014-Nov-15 02:26N 33°39' W 118°07'0 0.0
2014-Nov-15 01:32N 33°39' W 118°07'  

Dump ship's entire track history